sensor_id;sensor_type;location;lat;lon;timestamp;P1;durP1;ratioP1;P2;durP2;ratioP2
11504;SDS011;5809;53.262;10.408;2023-08-24T00:01:31;5.65;;;3.47;;
11504;SDS011;5809;53.262;10.408;2023-08-24T00:03:58;3.50;;;3.20;;
11504;SDS011;5809;53.262;10.408;2023-08-24T00:06:25;4.97;;;3.22;;
11504;SDS011;5809;53.262;10.408;2023-08-24T00:08:52;6.82;;;3.42;;
11504;SDS011;5809;53.262;10.408;2023-08-24T00:11:19;4.22;;;3.38;;
11504;SDS011;5809;53.262;10.408;2023-08-24T00:13:46;6.03;;;3.60;;
11504;SDS011;5809;53.262;10.408;2023-08-24T00:16:16;5.60;;;3.70;;
11504;SDS011;5809;53.262;10.408;2023-08-24T00:18:44;4.28;;;3.47;;
11504;SDS011;5809;53.262;10.408;2023-08-24T00:21:12;4.80;;;3.47;;
11504;SDS011;5809;53.262;10.408;2023-08-24T00:23:41;5.72;;;3.60;;
11504;SDS011;5809;53.262;10.408;2023-08-24T00:26:08;5.10;;;3.25;;
11504;SDS011;5809;53.262;10.408;2023-08-24T00:28:35;6.15;;;4.00;;
11504;SDS011;5809;53.262;10.408;2023-08-24T00:31:02;6.35;;;3.38;;
11504;SDS011;5809;53.262;10.408;2023-08-24T00:33:29;6.55;;;4.15;;
11504;SDS011;5809;53.262;10.408;2023-08-24T00:36:00;6.25;;;3.90;;
11504;SDS011;5809;53.262;10.408;2023-08-24T00:38:27;7.18;;;3.90;;
11504;SDS011;5809;53.262;10.408;2023-08-24T00:40:54;4.78;;;3.45;;
11504;SDS011;5809;53.262;10.408;2023-08-24T00:43:22;6.22;;;3.63;;
11504;SDS011;5809;53.262;10.408;2023-08-24T00:45:50;4.35;;;3.17;;
11504;SDS011;5809;53.262;10.408;2023-08-24T00:48:17;4.32;;;3.35;;
11504;SDS011;5809;53.262;10.408;2023-08-24T00:50:45;8.38;;;3.40;;
11504;SDS011;5809;53.262;10.408;2023-08-24T00:53:13;5.10;;;3.70;;
11504;SDS011;5809;53.262;10.408;2023-08-24T00:55:40;3.70;;;3.08;;
11504;SDS011;5809;53.262;10.408;2023-08-24T00:58:08;6.53;;;3.92;;
11504;SDS011;5809;53.262;10.408;2023-08-24T01:00:35;6.57;;;3.63;;
11504;SDS011;5809;53.262;10.408;2023-08-24T01:03:02;5.15;;;3.83;;
11504;SDS011;5809;53.262;10.408;2023-08-24T01:05:30;9.52;;;3.78;;
11504;SDS011;5809;53.262;10.408;2023-08-24T01:07:57;7.00;;;3.50;;
11504;SDS011;5809;53.262;10.408;2023-08-24T01:10:25;5.82;;;4.13;;
11504;SDS011;5809;53.262;10.408;2023-08-24T01:12:59;5.80;;;3.83;;
11504;SDS011;5809;53.262;10.408;2023-08-24T01:15:32;5.90;;;4.30;;
11504;SDS011;5809;53.262;10.408;2023-08-24T01:18:06;4.55;;;3.70;;
11504;SDS011;5809;53.262;10.408;2023-08-24T01:20:38;5.20;;;3.65;;
11504;SDS011;5809;53.262;10.408;2023-08-24T01:23:10;5.80;;;3.85;;
11504;SDS011;5809;53.262;10.408;2023-08-24T01:25:51;7.35;;;4.00;;
11504;SDS011;5809;53.262;10.408;2023-08-24T01:28:20;4.72;;;3.88;;
11504;SDS011;5809;53.262;10.408;2023-08-24T01:30:48;4.80;;;4.00;;
11504;SDS011;5809;53.262;10.408;2023-08-24T01:33:15;7.85;;;4.13;;
11504;SDS011;5809;53.262;10.408;2023-08-24T01:35:42;4.72;;;3.83;;
11504;SDS011;5809;53.262;10.408;2023-08-24T01:38:09;9.27;;;4.22;;
11504;SDS011;5809;53.262;10.408;2023-08-24T01:40:39;6.07;;;4.00;;
11504;SDS011;5809;53.262;10.408;2023-08-24T01:43:15;7.50;;;4.40;;
11504;SDS011;5809;53.262;10.408;2023-08-24T01:45:47;4.53;;;3.50;;
11504;SDS011;5809;53.262;10.408;2023-08-24T01:48:16;4.45;;;3.97;;
11504;SDS011;5809;53.262;10.408;2023-08-24T01:50:43;5.82;;;4.15;;
11504;SDS011;5809;53.262;10.408;2023-08-24T01:53:11;5.90;;;4.15;;
11504;SDS011;5809;53.262;10.408;2023-08-24T01:55:38;9.55;;;3.75;;
11504;SDS011;5809;53.262;10.408;2023-08-24T01:58:06;6.97;;;4.05;;
11504;SDS011;5809;53.262;10.408;2023-08-24T02:00:33;4.90;;;4.03;;
11504;SDS011;5809;53.262;10.408;2023-08-24T02:03:01;5.90;;;4.18;;
11504;SDS011;5809;53.262;10.408;2023-08-24T02:05:28;10.85;;;4.72;;
11504;SDS011;5809;53.262;10.408;2023-08-24T02:07:55;6.68;;;4.53;;
11504;SDS011;5809;53.262;10.408;2023-08-24T02:10:23;7.55;;;4.63;;
11504;SDS011;5809;53.262;10.408;2023-08-24T02:12:50;6.60;;;4.40;;
11504;SDS011;5809;53.262;10.408;2023-08-24T02:15:17;5.90;;;4.82;;
11504;SDS011;5809;53.262;10.408;2023-08-24T02:17:44;6.85;;;4.90;;
11504;SDS011;5809;53.262;10.408;2023-08-24T02:20:12;8.00;;;4.90;;
11504;SDS011;5809;53.262;10.408;2023-08-24T02:22:46;7.13;;;4.63;;
11504;SDS011;5809;53.262;10.408;2023-08-24T02:25:13;5.78;;;4.65;;
11504;SDS011;5809;53.262;10.408;2023-08-24T02:27:40;5.95;;;4.65;;
11504;SDS011;5809;53.262;10.408;2023-08-24T02:30:08;7.05;;;4.55;;
11504;SDS011;5809;53.262;10.408;2023-08-24T02:32:35;6.50;;;4.97;;
11504;SDS011;5809;53.262;10.408;2023-08-24T02:35:02;6.68;;;4.82;;
11504;SDS011;5809;53.262;10.408;2023-08-24T02:37:31;7.65;;;4.80;;
11504;SDS011;5809;53.262;10.408;2023-08-24T02:39:58;8.85;;;5.47;;
11504;SDS011;5809;53.262;10.408;2023-08-24T02:42:25;9.25;;;5.25;;
11504;SDS011;5809;53.262;10.408;2023-08-24T02:44:52;9.68;;;5.30;;
11504;SDS011;5809;53.262;10.408;2023-08-24T02:47:19;7.20;;;4.95;;
11504;SDS011;5809;53.262;10.408;2023-08-24T02:49:46;6.68;;;5.00;;
11504;SDS011;5809;53.262;10.408;2023-08-24T02:52:13;6.07;;;5.28;;
11504;SDS011;5809;53.262;10.408;2023-08-24T02:54:41;10.00;;;5.55;;
11504;SDS011;5809;53.262;10.408;2023-08-24T02:57:08;6.50;;;5.40;;
11504;SDS011;5809;53.262;10.408;2023-08-24T02:59:35;6.13;;;5.30;;
11504;SDS011;5809;53.262;10.408;2023-08-24T03:02:02;6.50;;;5.75;;
11504;SDS011;5809;53.262;10.408;2023-08-24T03:04:29;7.22;;;5.35;;
11504;SDS011;5809;53.262;10.408;2023-08-24T03:06:56;6.95;;;5.47;;
11504;SDS011;5809;53.262;10.408;2023-08-24T03:09:23;11.70;;;6.03;;
11504;SDS011;5809;53.262;10.408;2023-08-24T03:11:51;6.60;;;5.90;;
11504;SDS011;5809;53.262;10.408;2023-08-24T03:14:19;7.60;;;5.97;;
11504;SDS011;5809;53.262;10.408;2023-08-24T03:16:45;9.63;;;5.78;;
11504;SDS011;5809;53.262;10.408;2023-08-24T03:19:12;7.38;;;5.68;;
11504;SDS011;5809;53.262;10.408;2023-08-24T03:21:39;8.07;;;5.70;;
11504;SDS011;5809;53.262;10.408;2023-08-24T03:24:06;7.90;;;5.85;;
11504;SDS011;5809;53.262;10.408;2023-08-24T03:26:33;8.85;;;5.93;;
11504;SDS011;5809;53.262;10.408;2023-08-24T03:29:02;9.00;;;6.15;;
11504;SDS011;5809;53.262;10.408;2023-08-24T03:31:29;9.20;;;5.40;;
11504;SDS011;5809;53.262;10.408;2023-08-24T03:33:55;7.47;;;5.93;;
11504;SDS011;5809;53.262;10.408;2023-08-24T03:36:22;7.35;;;5.75;;
11504;SDS011;5809;53.262;10.408;2023-08-24T03:38:49;9.15;;;5.68;;
11504;SDS011;5809;53.262;10.408;2023-08-24T03:41:16;6.47;;;5.70;;
11504;SDS011;5809;53.262;10.408;2023-08-24T03:43:43;8.85;;;6.18;;
11504;SDS011;5809;53.262;10.408;2023-08-24T03:46:11;7.28;;;5.70;;
11504;SDS011;5809;53.262;10.408;2023-08-24T03:48:38;7.80;;;5.80;;
11504;SDS011;5809;53.262;10.408;2023-08-24T03:51:05;8.80;;;6.32;;
11504;SDS011;5809;53.262;10.408;2023-08-24T03:53:32;6.50;;;5.63;;
11504;SDS011;5809;53.262;10.408;2023-08-24T03:55:59;11.82;;;6.22;;
11504;SDS011;5809;53.262;10.408;2023-08-24T03:58:26;6.80;;;6.03;;
11504;SDS011;5809;53.262;10.408;2023-08-24T04:00:53;6.10;;;5.50;;
11504;SDS011;5809;53.262;10.408;2023-08-24T04:03:21;7.50;;;5.95;;
11504;SDS011;5809;53.262;10.408;2023-08-24T04:05:48;7.55;;;6.13;;
11504;SDS011;5809;53.262;10.408;2023-08-24T04:08:15;6.22;;;5.60;;
11504;SDS011;5809;53.262;10.408;2023-08-24T04:10:43;8.20;;;6.32;;
11504;SDS011;5809;53.262;10.408;2023-08-24T04:13:09;7.25;;;6.40;;
11504;SDS011;5809;53.262;10.408;2023-08-24T04:15:36;7.88;;;6.10;;
11504;SDS011;5809;53.262;10.408;2023-08-24T04:18:04;11.30;;;6.30;;
11504;SDS011;5809;53.262;10.408;2023-08-24T04:20:32;7.95;;;6.00;;
11504;SDS011;5809;53.262;10.408;2023-08-24T04:22:59;8.93;;;6.05;;
11504;SDS011;5809;53.262;10.408;2023-08-24T04:25:26;7.22;;;6.53;;
11504;SDS011;5809;53.262;10.408;2023-08-24T04:27:54;13.57;;;7.10;;
11504;SDS011;5809;53.262;10.408;2023-08-24T04:30:21;7.10;;;6.28;;
11504;SDS011;5809;53.262;10.408;2023-08-24T04:32:49;7.55;;;6.10;;
11504;SDS011;5809;53.262;10.408;2023-08-24T04:35:16;8.52;;;6.97;;
11504;SDS011;5809;53.262;10.408;2023-08-24T04:37:45;11.35;;;6.70;;
11504;SDS011;5809;53.262;10.408;2023-08-24T04:40:12;16.13;;;7.22;;
11504;SDS011;5809;53.262;10.408;2023-08-24T04:42:39;8.20;;;6.18;;
11504;SDS011;5809;53.262;10.408;2023-08-24T04:45:06;7.68;;;6.22;;
11504;SDS011;5809;53.262;10.408;2023-08-24T04:47:34;9.70;;;7.00;;
11504;SDS011;5809;53.262;10.408;2023-08-24T04:50:01;7.18;;;6.28;;
11504;SDS011;5809;53.262;10.408;2023-08-24T04:52:30;9.43;;;6.38;;
11504;SDS011;5809;53.262;10.408;2023-08-24T04:54:58;8.15;;;6.20;;
11504;SDS011;5809;53.262;10.408;2023-08-24T04:57:25;11.05;;;6.90;;
11504;SDS011;5809;53.262;10.408;2023-08-24T04:59:52;14.77;;;7.32;;
11504;SDS011;5809;53.262;10.408;2023-08-24T05:02:19;10.50;;;7.47;;
11504;SDS011;5809;53.262;10.408;2023-08-24T05:04:46;12.35;;;8.10;;
11504;SDS011;5809;53.262;10.408;2023-08-24T05:07:13;10.18;;;7.30;;
11504;SDS011;5809;53.262;10.408;2023-08-24T05:09:40;10.52;;;7.93;;
11504;SDS011;5809;53.262;10.408;2023-08-24T05:12:08;9.82;;;7.35;;
11504;SDS011;5809;53.262;10.408;2023-08-24T05:14:35;7.90;;;6.57;;
11504;SDS011;5809;53.262;10.408;2023-08-24T05:17:02;9.55;;;7.22;;
11504;SDS011;5809;53.262;10.408;2023-08-24T05:19:30;7.55;;;6.78;;
11504;SDS011;5809;53.262;10.408;2023-08-24T05:21:56;9.57;;;6.43;;
11504;SDS011;5809;53.262;10.408;2023-08-24T05:24:24;7.70;;;6.90;;
11504;SDS011;5809;53.262;10.408;2023-08-24T05:26:50;8.18;;;6.40;;
11504;SDS011;5809;53.262;10.408;2023-08-24T05:29:19;7.78;;;6.82;;
11504;SDS011;5809;53.262;10.408;2023-08-24T05:31:45;8.43;;;6.10;;
11504;SDS011;5809;53.262;10.408;2023-08-24T05:34:13;8.85;;;6.18;;
11504;SDS011;5809;53.262;10.408;2023-08-24T05:36:39;8.38;;;5.60;;
11504;SDS011;5809;53.262;10.408;2023-08-24T05:39:06;8.63;;;5.60;;
11504;SDS011;5809;53.262;10.408;2023-08-24T05:41:33;5.15;;;4.65;;
11504;SDS011;5809;53.262;10.408;2023-08-24T05:44:01;8.10;;;4.75;;
11504;SDS011;5809;53.262;10.408;2023-08-24T05:46:30;7.18;;;4.55;;
11504;SDS011;5809;53.262;10.408;2023-08-24T05:48:57;8.35;;;5.00;;
11504;SDS011;5809;53.262;10.408;2023-08-24T05:51:25;8.52;;;5.07;;
11504;SDS011;5809;53.262;10.408;2023-08-24T05:53:52;7.07;;;5.25;;
11504;SDS011;5809;53.262;10.408;2023-08-24T05:56:20;6.22;;;4.93;;
11504;SDS011;5809;53.262;10.408;2023-08-24T05:58:47;6.00;;;4.82;;
11504;SDS011;5809;53.262;10.408;2023-08-24T06:01:14;5.97;;;5.03;;
11504;SDS011;5809;53.262;10.408;2023-08-24T06:03:43;7.97;;;5.20;;
11504;SDS011;5809;53.262;10.408;2023-08-24T06:06:10;6.05;;;4.75;;
11504;SDS011;5809;53.262;10.408;2023-08-24T06:08:37;6.75;;;5.72;;
11504;SDS011;5809;53.262;10.408;2023-08-24T06:11:04;7.53;;;5.45;;
11504;SDS011;5809;53.262;10.408;2023-08-24T06:13:30;15.50;;;5.90;;
11504;SDS011;5809;53.262;10.408;2023-08-24T06:15:58;6.97;;;5.00;;
11504;SDS011;5809;53.262;10.408;2023-08-24T06:18:25;7.75;;;4.88;;
11504;SDS011;5809;53.262;10.408;2023-08-24T06:20:53;7.03;;;4.40;;
11504;SDS011;5809;53.262;10.408;2023-08-24T06:23:20;6.32;;;4.45;;
11504;SDS011;5809;53.262;10.408;2023-08-24T06:25:47;5.40;;;3.88;;
11504;SDS011;5809;53.262;10.408;2023-08-24T06:28:14;5.97;;;3.40;;
11504;SDS011;5809;53.262;10.408;2023-08-24T06:30:41;5.97;;;3.33;;
11504;SDS011;5809;53.262;10.408;2023-08-24T06:33:09;4.13;;;3.10;;
11504;SDS011;5809;53.262;10.408;2023-08-24T06:35:36;3.25;;;2.95;;
11504;SDS011;5809;53.262;10.408;2023-08-24T06:38:05;4.63;;;2.92;;
11504;SDS011;5809;53.262;10.408;2023-08-24T06:40:31;5.20;;;3.13;;
11504;SDS011;5809;53.262;10.408;2023-08-24T06:42:58;7.18;;;2.70;;
11504;SDS011;5809;53.262;10.408;2023-08-24T06:45:25;5.30;;;3.17;;
11504;SDS011;5809;53.262;10.408;2023-08-24T06:47:52;3.63;;;2.58;;
11504;SDS011;5809;53.262;10.408;2023-08-24T06:50:19;5.32;;;2.50;;
11504;SDS011;5809;53.262;10.408;2023-08-24T06:52:46;3.28;;;2.50;;
11504;SDS011;5809;53.262;10.408;2023-08-24T06:55:15;4.30;;;2.50;;
11504;SDS011;5809;53.262;10.408;2023-08-24T06:57:42;5.03;;;2.53;;
11504;SDS011;5809;53.262;10.408;2023-08-24T07:00:09;4.25;;;2.38;;
11504;SDS011;5809;53.262;10.408;2023-08-24T07:02:40;4.05;;;2.28;;
11504;SDS011;5809;53.262;10.408;2023-08-24T07:05:07;6.05;;;2.25;;
11504;SDS011;5809;53.262;10.408;2023-08-24T07:07:34;4.38;;;2.20;;
11504;SDS011;5809;53.262;10.408;2023-08-24T07:10:01;5.85;;;2.50;;
11504;SDS011;5809;53.262;10.408;2023-08-24T07:12:29;5.05;;;2.03;;
11504;SDS011;5809;53.262;10.408;2023-08-24T07:14:56;4.50;;;2.10;;
11504;SDS011;5809;53.262;10.408;2023-08-24T07:17:23;3.35;;;1.88;;
11504;SDS011;5809;53.262;10.408;2023-08-24T07:19:50;2.50;;;1.70;;
11504;SDS011;5809;53.262;10.408;2023-08-24T07:22:17;5.03;;;1.70;;
11504;SDS011;5809;53.262;10.408;2023-08-24T07:24:44;3.17;;;2.00;;
11504;SDS011;5809;53.262;10.408;2023-08-24T07:27:11;2.80;;;1.63;;
11504;SDS011;5809;53.262;10.408;2023-08-24T07:29:39;3.28;;;1.70;;
11504;SDS011;5809;53.262;10.408;2023-08-24T07:32:06;2.97;;;1.70;;
11504;SDS011;5809;53.262;10.408;2023-08-24T07:34:33;5.15;;;1.60;;
11504;SDS011;5809;53.262;10.408;2023-08-24T07:37:00;4.55;;;1.80;;
11504;SDS011;5809;53.262;10.408;2023-08-24T07:39:27;3.70;;;1.50;;
11504;SDS011;5809;53.262;10.408;2023-08-24T07:41:54;5.68;;;1.60;;
11504;SDS011;5809;53.262;10.408;2023-08-24T07:44:22;6.97;;;1.90;;
11504;SDS011;5809;53.262;10.408;2023-08-24T07:46:50;2.97;;;1.70;;
11504;SDS011;5809;53.262;10.408;2023-08-24T07:49:17;3.33;;;1.60;;
11504;SDS011;5809;53.262;10.408;2023-08-24T07:51:44;4.47;;;2.08;;
11504;SDS011;5809;53.262;10.408;2023-08-24T07:54:12;4.72;;;1.90;;
11504;SDS011;5809;53.262;10.408;2023-08-24T07:56:39;6.00;;;2.08;;
11504;SDS011;5809;53.262;10.408;2023-08-24T07:59:06;3.65;;;1.83;;
11504;SDS011;5809;53.262;10.408;2023-08-24T08:01:33;3.33;;;1.80;;
11504;SDS011;5809;53.262;10.408;2023-08-24T08:04:01;4.85;;;2.33;;
11504;SDS011;5809;53.262;10.408;2023-08-24T08:06:28;2.90;;;1.80;;
11504;SDS011;5809;53.262;10.408;2023-08-24T08:08:55;2.08;;;1.60;;
11504;SDS011;5809;53.262;10.408;2023-08-24T08:11:23;2.58;;;1.60;;
11504;SDS011;5809;53.262;10.408;2023-08-24T08:13:50;7.45;;;1.80;;
11504;SDS011;5809;53.262;10.408;2023-08-24T08:16:17;4.03;;;1.88;;
11504;SDS011;5809;53.262;10.408;2023-08-24T08:18:44;4.10;;;1.92;;
11504;SDS011;5809;53.262;10.408;2023-08-24T08:21:14;4.88;;;1.80;;
11504;SDS011;5809;53.262;10.408;2023-08-24T08:23:43;4.22;;;2.10;;
11504;SDS011;5809;53.262;10.408;2023-08-24T08:26:10;4.00;;;2.22;;
11504;SDS011;5809;53.262;10.408;2023-08-24T08:28:38;4.05;;;1.95;;
11504;SDS011;5809;53.262;10.408;2023-08-24T08:31:05;3.35;;;1.95;;
11504;SDS011;5809;53.262;10.408;2023-08-24T08:33:32;6.50;;;2.20;;
11504;SDS011;5809;53.262;10.408;2023-08-24T08:35:59;4.25;;;1.90;;
11504;SDS011;5809;53.262;10.408;2023-08-24T08:38:27;2.47;;;1.70;;
11504;SDS011;5809;53.262;10.408;2023-08-24T08:40:55;4.57;;;1.90;;
11504;SDS011;5809;53.262;10.408;2023-08-24T08:43:27;3.22;;;2.15;;
11504;SDS011;5809;53.262;10.408;2023-08-24T08:45:55;4.47;;;2.03;;
11504;SDS011;5809;53.262;10.408;2023-08-24T08:48:22;5.43;;;2.00;;
11504;SDS011;5809;53.262;10.408;2023-08-24T08:50:50;4.07;;;1.90;;
11504;SDS011;5809;53.262;10.408;2023-08-24T08:53:21;4.25;;;2.00;;
11504;SDS011;5809;53.262;10.408;2023-08-24T08:55:50;3.38;;;1.92;;
11504;SDS011;5809;53.262;10.408;2023-08-24T08:58:18;9.15;;;2.10;;
11504;SDS011;5809;53.262;10.408;2023-08-24T09:00:46;4.03;;;2.00;;
11504;SDS011;5809;53.262;10.408;2023-08-24T09:03:13;7.05;;;1.70;;
11504;SDS011;5809;53.262;10.408;2023-08-24T09:05:43;6.15;;;2.33;;
11504;SDS011;5809;53.262;10.408;2023-08-24T09:08:13;5.60;;;1.95;;
11504;SDS011;5809;53.262;10.408;2023-08-24T09:10:40;13.30;;;2.53;;
11504;SDS011;5809;53.262;10.408;2023-08-24T09:13:08;4.38;;;2.42;;
11504;SDS011;5809;53.262;10.408;2023-08-24T09:15:35;2.95;;;1.60;;
11504;SDS011;5809;53.262;10.408;2023-08-24T09:18:03;6.05;;;2.17;;
11504;SDS011;5809;53.262;10.408;2023-08-24T09:20:30;4.25;;;1.75;;
11504;SDS011;5809;53.262;10.408;2023-08-24T09:22:57;4.88;;;2.10;;
11504;SDS011;5809;53.262;10.408;2023-08-24T09:25:24;4.15;;;2.08;;
11504;SDS011;5809;53.262;10.408;2023-08-24T09:27:57;4.95;;;2.10;;
11504;SDS011;5809;53.262;10.408;2023-08-24T09:30:29;3.17;;;2.00;;
11504;SDS011;5809;53.262;10.408;2023-08-24T09:33:00;3.25;;;2.10;;
11504;SDS011;5809;53.262;10.408;2023-08-24T09:35:28;3.75;;;2.17;;
11504;SDS011;5809;53.262;10.408;2023-08-24T09:37:54;3.38;;;2.22;;
11504;SDS011;5809;53.262;10.408;2023-08-24T09:40:23;7.20;;;2.40;;
11504;SDS011;5809;53.262;10.408;2023-08-24T09:42:51;4.50;;;2.03;;
11504;SDS011;5809;53.262;10.408;2023-08-24T09:45:18;3.22;;;1.80;;
11504;SDS011;5809;53.262;10.408;2023-08-24T09:47:48;4.25;;;2.08;;
11504;SDS011;5809;53.262;10.408;2023-08-24T09:50:17;7.45;;;2.30;;
11504;SDS011;5809;53.262;10.408;2023-08-24T09:52:44;6.07;;;1.90;;
11504;SDS011;5809;53.262;10.408;2023-08-24T09:55:13;4.13;;;1.73;;
11504;SDS011;5809;53.262;10.408;2023-08-24T09:57:47;3.75;;;1.80;;
11504;SDS011;5809;53.262;10.408;2023-08-24T10:00:18;4.97;;;1.95;;
11504;SDS011;5809;53.262;10.408;2023-08-24T10:05:21;3.88;;;2.25;;
11504;SDS011;5809;53.262;10.408;2023-08-24T10:07:51;4.85;;;2.38;;
11504;SDS011;5809;53.262;10.408;2023-08-24T10:10:19;4.95;;;2.40;;
11504;SDS011;5809;53.262;10.408;2023-08-24T10:12:50;5.10;;;2.42;;
11504;SDS011;5809;53.262;10.408;2023-08-24T10:15:17;4.60;;;2.40;;
11504;SDS011;5809;53.262;10.408;2023-08-24T10:17:47;4.10;;;2.47;;
11504;SDS011;5809;53.262;10.408;2023-08-24T10:20:15;3.15;;;2.60;;
11504;SDS011;5809;53.262;10.408;2023-08-24T10:22:46;6.82;;;2.50;;
11504;SDS011;5809;53.262;10.408;2023-08-24T10:25:15;4.72;;;2.78;;
11504;SDS011;5809;53.262;10.408;2023-08-24T10:27:44;7.38;;;4.53;;
11504;SDS011;5809;53.262;10.408;2023-08-24T10:30:13;6.43;;;4.13;;
11504;SDS011;5809;53.262;10.408;2023-08-24T10:32:41;6.35;;;2.53;;
11504;SDS011;5809;53.262;10.408;2023-08-24T10:35:10;3.55;;;2.70;;
11504;SDS011;5809;53.262;10.408;2023-08-24T10:37:40;4.13;;;2.45;;
11504;SDS011;5809;53.262;10.408;2023-08-24T10:40:11;5.15;;;2.50;;
11504;SDS011;5809;53.262;10.408;2023-08-24T10:42:45;6.03;;;2.42;;
11504;SDS011;5809;53.262;10.408;2023-08-24T10:45:13;3.85;;;2.40;;
11504;SDS011;5809;53.262;10.408;2023-08-24T10:47:43;7.22;;;2.13;;
11504;SDS011;5809;53.262;10.408;2023-08-24T10:50:12;2.80;;;2.42;;
11504;SDS011;5809;53.262;10.408;2023-08-24T10:52:40;4.35;;;2.50;;
11504;SDS011;5809;53.262;10.408;2023-08-24T10:55:22;6.63;;;2.92;;
11504;SDS011;5809;53.262;10.408;2023-08-24T10:57:56;4.53;;;2.53;;
11504;SDS011;5809;53.262;10.408;2023-08-24T11:00:25;5.32;;;2.10;;
11504;SDS011;5809;53.262;10.408;2023-08-24T11:02:53;4.65;;;2.13;;
11504;SDS011;5809;53.262;10.408;2023-08-24T11:05:21;5.18;;;2.10;;
11504;SDS011;5809;53.262;10.408;2023-08-24T11:07:50;4.78;;;2.05;;
11504;SDS011;5809;53.262;10.408;2023-08-24T11:10:19;2.42;;;1.80;;
11504;SDS011;5809;53.262;10.408;2023-08-24T11:15:44;2.78;;;1.95;;
11504;SDS011;5809;53.262;10.408;2023-08-24T11:18:22;3.83;;;2.22;;
11504;SDS011;5809;53.262;10.408;2023-08-24T11:20:51;5.18;;;2.22;;
11504;SDS011;5809;53.262;10.408;2023-08-24T11:23:20;4.43;;;2.17;;
11504;SDS011;5809;53.262;10.408;2023-08-24T11:25:48;6.32;;;2.47;;
11504;SDS011;5809;53.262;10.408;2023-08-24T11:28:21;2.75;;;2.53;;
11504;SDS011;5809;53.262;10.408;2023-08-24T11:30:49;3.75;;;2.50;;
11504;SDS011;5809;53.262;10.408;2023-08-24T11:33:16;6.13;;;3.53;;
11504;SDS011;5809;53.262;10.408;2023-08-24T11:35:52;3.90;;;2.30;;
11504;SDS011;5809;53.262;10.408;2023-08-24T11:38:19;3.38;;;2.00;;
11504;SDS011;5809;53.262;10.408;2023-08-24T11:40:46;3.70;;;2.00;;
11504;SDS011;5809;53.262;10.408;2023-08-24T11:43:21;4.20;;;2.30;;
11504;SDS011;5809;53.262;10.408;2023-08-24T11:45:51;6.60;;;5.28;;
11504;SDS011;5809;53.262;10.408;2023-08-24T11:48:19;5.00;;;3.95;;
11504;SDS011;5809;53.262;10.408;2023-08-24T11:50:50;3.75;;;2.30;;
11504;SDS011;5809;53.262;10.408;2023-08-24T11:53:18;5.15;;;2.20;;
11504;SDS011;5809;53.262;10.408;2023-08-24T11:55:46;3.38;;;1.83;;
11504;SDS011;5809;53.262;10.408;2023-08-24T11:58:13;5.65;;;2.15;;
11504;SDS011;5809;53.262;10.408;2023-08-24T12:00:43;4.97;;;1.95;;
11504;SDS011;5809;53.262;10.408;2023-08-24T12:03:11;3.92;;;1.98;;
11504;SDS011;5809;53.262;10.408;2023-08-24T12:05:38;2.97;;;2.05;;
11504;SDS011;5809;53.262;10.408;2023-08-24T12:08:05;3.15;;;1.90;;
11504;SDS011;5809;53.262;10.408;2023-08-24T12:10:32;6.13;;;2.17;;
11504;SDS011;5809;53.262;10.408;2023-08-24T12:13:01;3.28;;;2.10;;
11504;SDS011;5809;53.262;10.408;2023-08-24T12:15:30;4.57;;;2.00;;
11504;SDS011;5809;53.262;10.408;2023-08-24T12:18:02;5.82;;;2.20;;
11504;SDS011;5809;53.262;10.408;2023-08-24T12:20:33;3.83;;;2.20;;
11504;SDS011;5809;53.262;10.408;2023-08-24T12:23:00;6.95;;;2.20;;
11504;SDS011;5809;53.262;10.408;2023-08-24T12:25:27;3.95;;;2.10;;
11504;SDS011;5809;53.262;10.408;2023-08-24T12:28:07;4.32;;;2.20;;
11504;SDS011;5809;53.262;10.408;2023-08-24T12:30:43;3.67;;;2.30;;
11504;SDS011;5809;53.262;10.408;2023-08-24T12:33:21;2.67;;;1.92;;
11504;SDS011;5809;53.262;10.408;2023-08-24T12:35:49;2.42;;;1.88;;
11504;SDS011;5809;53.262;10.408;2023-08-24T12:38:16;2.60;;;2.00;;
11504;SDS011;5809;53.262;10.408;2023-08-24T12:40:44;2.72;;;2.20;;
11504;SDS011;5809;53.262;10.408;2023-08-24T12:43:11;4.10;;;2.00;;
11504;SDS011;5809;53.262;10.408;2023-08-24T12:45:38;4.20;;;2.17;;
11504;SDS011;5809;53.262;10.408;2023-08-24T12:48:06;5.68;;;2.05;;
11504;SDS011;5809;53.262;10.408;2023-08-24T12:50:34;3.47;;;1.83;;
11504;SDS011;5809;53.262;10.408;2023-08-24T12:53:02;3.65;;;2.20;;
11504;SDS011;5809;53.262;10.408;2023-08-24T12:55:31;5.35;;;2.08;;
11504;SDS011;5809;53.262;10.408;2023-08-24T12:57:58;3.08;;;2.13;;
11504;SDS011;5809;53.262;10.408;2023-08-24T13:00:25;3.78;;;2.25;;
11504;SDS011;5809;53.262;10.408;2023-08-24T13:02:53;2.95;;;1.98;;
11504;SDS011;5809;53.262;10.408;2023-08-24T13:05:19;2.97;;;1.73;;
11504;SDS011;5809;53.262;10.408;2023-08-24T13:07:48;4.63;;;2.58;;
11504;SDS011;5809;53.262;10.408;2023-08-24T13:10:16;4.15;;;2.15;;
11504;SDS011;5809;53.262;10.408;2023-08-24T13:12:42;6.35;;;2.20;;
11504;SDS011;5809;53.262;10.408;2023-08-24T13:15:09;7.68;;;2.58;;
11504;SDS011;5809;53.262;10.408;2023-08-24T13:17:37;4.18;;;2.30;;
11504;SDS011;5809;53.262;10.408;2023-08-24T13:20:04;6.45;;;2.40;;
11504;SDS011;5809;53.262;10.408;2023-08-24T13:22:32;4.72;;;2.47;;
11504;SDS011;5809;53.262;10.408;2023-08-24T13:25:01;4.95;;;2.30;;
11504;SDS011;5809;53.262;10.408;2023-08-24T13:27:28;5.00;;;2.33;;
11504;SDS011;5809;53.262;10.408;2023-08-24T13:29:56;3.90;;;2.42;;
11504;SDS011;5809;53.262;10.408;2023-08-24T13:32:26;8.65;;;2.53;;
11504;SDS011;5809;53.262;10.408;2023-08-24T13:34:53;2.92;;;2.30;;
11504;SDS011;5809;53.262;10.408;2023-08-24T13:37:21;4.43;;;2.70;;
11504;SDS011;5809;53.262;10.408;2023-08-24T13:39:49;3.50;;;2.28;;
11504;SDS011;5809;53.262;10.408;2023-08-24T13:42:17;3.30;;;2.15;;
11504;SDS011;5809;53.262;10.408;2023-08-24T13:44:44;3.50;;;2.00;;
11504;SDS011;5809;53.262;10.408;2023-08-24T13:47:11;3.50;;;2.75;;
11504;SDS011;5809;53.262;10.408;2023-08-24T13:49:38;6.97;;;2.30;;
11504;SDS011;5809;53.262;10.408;2023-08-24T13:52:05;2.90;;;2.10;;
11504;SDS011;5809;53.262;10.408;2023-08-24T13:54:33;2.90;;;2.33;;
11504;SDS011;5809;53.262;10.408;2023-08-24T13:57:00;5.55;;;2.20;;
11504;SDS011;5809;53.262;10.408;2023-08-24T13:59:29;2.70;;;2.10;;
11504;SDS011;5809;53.262;10.408;2023-08-24T14:01:56;3.20;;;2.30;;
11504;SDS011;5809;53.262;10.408;2023-08-24T14:04:23;4.03;;;2.45;;
11504;SDS011;5809;53.262;10.408;2023-08-24T14:06:50;3.22;;;2.00;;
11504;SDS011;5809;53.262;10.408;2023-08-24T14:09:16;3.63;;;2.10;;
11504;SDS011;5809;53.262;10.408;2023-08-24T14:11:43;2.88;;;2.00;;
11504;SDS011;5809;53.262;10.408;2023-08-24T14:14:10;2.92;;;2.08;;
11504;SDS011;5809;53.262;10.408;2023-08-24T14:16:39;3.38;;;2.10;;
11504;SDS011;5809;53.262;10.408;2023-08-24T14:19:06;3.28;;;2.10;;
11504;SDS011;5809;53.262;10.408;2023-08-24T14:21:32;3.47;;;2.22;;
11504;SDS011;5809;53.262;10.408;2023-08-24T14:24:00;4.07;;;2.10;;
11504;SDS011;5809;53.262;10.408;2023-08-24T14:26:26;2.75;;;2.00;;
11504;SDS011;5809;53.262;10.408;2023-08-24T14:28:54;5.63;;;2.25;;
11504;SDS011;5809;53.262;10.408;2023-08-24T14:31:22;2.50;;;2.03;;
11504;SDS011;5809;53.262;10.408;2023-08-24T14:33:52;6.07;;;2.13;;
11504;SDS011;5809;53.262;10.408;2023-08-24T14:36:19;4.47;;;2.33;;
11504;SDS011;5809;53.262;10.408;2023-08-24T14:38:46;5.03;;;1.90;;
11504;SDS011;5809;53.262;10.408;2023-08-24T14:41:14;4.03;;;2.22;;
11504;SDS011;5809;53.262;10.408;2023-08-24T14:43:42;7.70;;;2.65;;
11504;SDS011;5809;53.262;10.408;2023-08-24T14:46:09;3.85;;;2.30;;
11504;SDS011;5809;53.262;10.408;2023-08-24T14:48:36;4.15;;;2.13;;
11504;SDS011;5809;53.262;10.408;2023-08-24T14:51:05;3.85;;;1.92;;
11504;SDS011;5809;53.262;10.408;2023-08-24T14:53:32;2.85;;;2.10;;
11504;SDS011;5809;53.262;10.408;2023-08-24T14:56:00;3.92;;;2.28;;
11504;SDS011;5809;53.262;10.408;2023-08-24T14:58:27;7.10;;;2.42;;